Time;durP1;ratioP1;P1;durP2;ratioP2;P2;SDS_P1;SDS_P2;PMS_P1;PMS_P2;Temp;Humidity;BMP_temperature;BMP_pressure;BME280_temperature;BME280_humidity;BME280_pressure;Samples;Min_cycle;Max_cycle;Signal;HPM_P1;HPM_P2
2021/06/15 00:00:47;;;;;;;;;;;;;;;14.96;63.33;99977.09;4312530;33;34449;-89
2021/06/15 00:03:23;;;;;;;;;;;;;;;15.01;62.91;99984.63;4289901;33;34845;-94
2021/06/15 00:05:55;;;;;;;;;;;;;;;14.88;63.14;99984.63;4309585;33;33602;-93
2021/06/15 00:08:48;;;;;;;;;;;;;;;14.63;64.05;99986.09;4225205;33;36054;-95
2021/06/15 00:11:20;;;;;;;;;;;;;;;14.86;63.16;99984.03;4299882;33;34410;-94
2021/06/15 00:13:53;;;;;;;;;;;;;;;14.76;63.20;99981.72;4298317;33;33895;-95
2021/06/15 00:16:26;;;;;;;;;;;;;;;14.53;63.69;99984.81;4326099;33;33494;-95
2021/06/15 00:19:00;;;;;;;;;;;;;;;14.30;64.16;99978.72;4304046;33;33948;-89
2021/06/15 00:21:32;;;;;;;;;;;;;;;14.07;65.53;99978.22;4310852;33;34063;-89
2021/06/15 00:24:05;;;;;;;;;;;;;;;14.10;65.36;99984.09;4311243;33;33909;-88
2021/06/15 00:26:37;;;;;;;;;;;;;;;14.42;64.19;99976.22;4300614;33;33280;-93
2021/06/15 00:29:11;;;;;;;;;;;;;;;14.39;63.97;99971.19;4301848;33;35252;-88
2021/06/15 00:31:43;;;;;;;;;;;;;;;14.08;65.30;99982.62;4303151;33;33835;-94
2021/06/15 00:34:16;;;;;;;;;;;;;;;13.94;65.70;99985.31;4301234;33;35326;-89
2021/06/15 00:36:50;;;;;;;;;;;;;;;14.04;65.37;99984.06;4303177;33;33951;-94
2021/06/15 00:39:24;;;;;;;;;;;;;;;13.88;65.92;99974.41;4302459;33;34231;-94
2021/06/15 00:41:56;;;;;;;;;;;;;;;13.86;66.01;99980.06;4303742;33;35108;-88
2021/06/15 00:44:29;;;;;;;;;;;;;;;13.70;66.75;99977.69;4305132;33;34064;-88
2021/06/15 00:47:04;;;;;;;;;;;;;;;14.04;65.58;99971.34;4304900;33;33190;-89
2021/06/15 00:49:39;;;;;;;;;;;;;;;14.01;65.83;99979.03;4313496;33;32873;-88
2021/06/15 00:52:12;;;;;;;;;;;;;;;14.34;64.87;99967.41;4327068;33;33970;-94
2021/06/15 00:54:45;;;;;;;;;;;;;;;14.23;65.07;99966.16;4303257;33;35181;-89
2021/06/15 00:57:19;;;;;;;;;;;;;;;14.03;65.49;99974.25;4327493;33;33153;-94
2021/06/15 00:59:55;;;;;;;;;;;;;;;14.28;64.34;99975.38;4330137;33;34368;-94
2021/06/15 01:02:29;;;;;;;;;;;;;;;14.14;64.71;99976.38;4341489;32;34620;-89
2021/06/15 01:05:03;;;;;;;;;;;;;;;12.94;68.21;99973.88;4319596;33;33940;-93
2021/06/15 01:07:49;;;;;;;;;;;;;;;13.15;67.83;99980.28;4329955;33;33886;-94
2021/06/15 01:10:40;;;;;;;;;;;;;;;13.54;66.45;99968.81;4314555;33;34164;-89
2021/06/15 01:13:32;;;;;;;;;;;;;;;13.49;67.05;99965.03;4326545;33;34059;-89
2021/06/15 01:16:07;;;;;;;;;;;;;;;13.74;66.33;99963.50;4304839;33;34315;-94
2021/06/15 01:19:17;;;;;;;;;;;;;;;13.83;66.00;99961.44;4278691;33;33973;-95
2021/06/15 01:21:56;;;;;;;;;;;;;;;13.75;65.82;99959.72;4315536;33;34835;-88
2021/06/15 01:24:54;;;;;;;;;;;;;;;13.60;65.68;99954.44;4325959;33;33754;-93
2021/06/15 01:27:42;;;;;;;;;;;;;;;13.75;65.41;99956.19;4325466;33;33545;-94
2021/06/15 01:30:15;;;;;;;;;;;;;;;13.87;65.13;99954.53;4326796;33;33581;-89
2021/06/15 01:32:55;;;;;;;;;;;;;;;13.86;65.05;99955.63;4326324;33;34685;-89
2021/06/15 01:35:28;;;;;;;;;;;;;;;13.95;64.30;99959.81;4330802;33;33969;-94
2021/06/15 01:38:25;;;;;;;;;;;;;;;13.86;64.16;99954.75;4267449;33;35662;-88
2021/06/15 01:41:08;;;;;;;;;;;;;;;13.28;65.97;99957.78;4326808;33;32969;-89
2021/06/15 01:43:49;;;;;;;;;;;;;;;13.20;66.40;99951.50;4326904;33;33632;-89
2021/06/15 01:46:23;;;;;;;;;;;;;;;13.47;65.70;99951.66;4327043;33;34870;-94
2021/06/15 01:49:04;;;;;;;;;;;;;;;13.78;65.00;99947.63;4295606;33;34958;-89
2021/06/15 01:51:37;;;;;;;;;;;;;;;13.77;64.64;99943.22;4286509;33;34123;-95
2021/06/15 01:54:12;;;;;;;;;;;;;;;13.55;65.19;99947.97;4293293;33;32560;-89
2021/06/15 01:56:45;;;;;;;;;;;;;;;13.85;64.26;99947.66;4304692;33;33762;-89
2021/06/15 01:59:18;;;;;;;;;;;;;;;13.70;64.68;99950.53;4287605;33;34013;-94
2021/06/15 02:02:27;;;;;;;;;;;;;;;13.95;64.08;99951.66;4263300;33;34389;-94
2021/06/15 02:05:15;;;;;;;;;;;;;;;13.77;64.67;99954.94;4280284;33;35094;-88
2021/06/15 02:07:47;;;;;;;;;;;;;;;13.58;64.64;99951.09;4300473;33;34042;-89
2021/06/15 02:10:21;;;;;;;;;;;;;;;13.41;65.53;99947.91;4295421;33;33900;-93
2021/06/15 02:13:01;;;;;;;;;;;;;;;13.56;64.81;99955.91;4306656;33;34713;-94
2021/06/15 02:15:35;;;;;;;;;;;;;;;13.66;64.49;99954.69;4311574;33;34213;-90
2021/06/15 02:18:17;;;;;;;;;;;;;;;13.33;65.69;99966.19;4297503;33;34133;-89
2021/06/15 02:21:02;;;;;;;;;;;;;;;13.35;65.89;99950.56;4278088;33;37213;-89
2021/06/15 02:23:35;;;;;;;;;;;;;;;13.45;65.50;99940.19;4290022;33;34235;-89
2021/06/15 02:26:11;;;;;;;;;;;;;;;13.44;65.75;99943.91;4290185;33;33585;-89
2021/06/15 02:28:45;;;;;;;;;;;;;;;13.64;65.00;99951.31;4289774;33;33745;-95
2021/06/15 02:31:55;;;;;;;;;;;;;;;13.74;64.49;99949.06;4280353;33;34575;-88
2021/06/15 02:34:29;;;;;;;;;;;;;;;13.71;64.60;99944.03;4288187;33;35853;-90
2021/06/15 02:37:04;;;;;;;;;;;;;;;13.57;65.04;99946.69;4300578;33;34593;-90
2021/06/15 02:39:37;;;;;;;;;;;;;;;13.49;65.06;99949.59;4299879;33;33825;-91
2021/06/15 02:42:11;;;;;;;;;;;;;;;13.66;64.33;99955.50;4287173;33;34737;-89
2021/06/15 02:44:45;;;;;;;;;;;;;;;13.51;64.81;99947.50;4275818;33;33146;-90
2021/06/15 02:47:18;;;;;;;;;;;;;;;13.41;65.39;99949.75;4288324;33;33632;-90
2021/06/15 02:49:52;;;;;;;;;;;;;;;13.17;66.18;99951.06;4288631;33;35677;-94
2021/06/15 02:52:38;;;;;;;;;;;;;;;13.64;64.48;99956.75;4309686;33;34423;-90
2021/06/15 02:55:38;;;;;;;;;;;;;;;13.44;64.96;99952.06;4300104;33;33382;-89
2021/06/15 02:58:12;;;;;;;;;;;;;;;13.40;64.96;99957.06;4257284;33;34072;-89
2021/06/15 03:00:45;;;;;;;;;;;;;;;13.47;65.02;99946.22;4296649;33;34164;-90
2021/06/15 03:03:18;;;;;;;;;;;;;;;13.54;64.86;99946.28;4296783;33;33945;-93
2021/06/15 03:05:52;;;;;;;;;;;;;;;13.49;64.77;99955.03;4295914;33;33103;-88
2021/06/15 03:08:25;;;;;;;;;;;;;;;13.67;64.24;99961.81;4275497;33;34014;-88
2021/06/15 03:10:58;;;;;;;;;;;;;;;13.82;nan;99961.63;4322627;33;33905;-94
2021/06/15 03:13:38;;;;;;;;;;;;;;;13.72;64.05;99962.03;4314460;33;34456;-88
2021/06/15 03:16:14;;;;;;;;;;;;;;;13.56;64.63;99961.34;4313259;33;33495;-93
2021/06/15 03:18:55;;;;;;;;;;;;;;;13.49;64.58;99960.47;4299705;33;34966;-89
2021/06/15 03:21:30;;;;;;;;;;;;;;;13.51;64.88;99963.81;4299016;33;33975;-93
2021/06/15 03:24:05;;;;;;;;;;;;;;;13.81;63.97;99966.22;4276065;33;34266;-93
2021/06/15 03:26:54;;;;;;;;;;;;;;;13.74;64.38;99968.06;4303437;33;33200;-88
2021/06/15 03:29:28;;;;;;;;;;;;;;;13.75;64.24;99967.88;4312960;33;34829;-93
2021/06/15 03:32:04;;;;;;;;;;;;;;;13.49;65.11;99974.03;4289788;33;34416;-89
2021/06/15 03:34:46;;;;;;;;;;;;;;;13.85;64.15;99970.22;4311319;33;33943;-92
2021/06/15 03:37:26;;;;;;;;;;;;;;;13.80;64.29;99977.31;4314158;33;33565;-90
2021/06/15 03:39:59;;;;;;;;;;;;;;;13.87;64.29;99973.56;4326513;33;33449;-94
2021/06/15 03:43:11;;;;;;;;;;;;;;;13.50;65.90;99981.16;3799642;33;14383513;-89
2021/06/15 03:45:48;;;;;;;;;;;;;;;13.86;65.17;99965.63;4268629;33;34001;-89
2021/06/15 03:48:21;;;;;;;;;;;;;;;13.79;65.88;99968.31;4268344;33;35274;-94
2021/06/15 03:50:56;;;;;;;;;;;;;;;14.10;65.02;99964.22;4280397;33;34599;-89
2021/06/15 03:53:30;;;;;;;;;;;;;;;14.26;64.33;99960.31;4279678;33;33248;-95
2021/06/15 03:56:03;;;;;;;;;;;;;;;14.15;65.08;99966.31;4280416;33;34399;-89
2021/06/15 03:58:36;;;;;;;;;;;;;;;14.26;64.50;99969.28;4279386;33;33820;-90
2021/06/15 04:01:09;;;;;;;;;;;;;;;14.24;65.39;99963.22;4266899;33;33927;-92
2021/06/15 04:03:42;;;;;;;;;;;;;;;14.46;64.77;99963.03;4278062;33;33897;-89
2021/06/15 04:06:15;;;;;;;;;;;;;;;14.45;64.90;99969.53;4267041;33;33597;-91
2021/06/15 04:08:48;;;;;;;;;;;;;;;14.66;64.46;99971.25;4264347;33;35041;-93
2021/06/15 04:11:21;;;;;;;;;;;;;;;14.85;64.24;99966.00;4280305;33;35095;-88
2021/06/15 04:13:54;;;;;;;;;;;;;;;14.73;64.75;99963.09;4244857;33;33110;-92
2021/06/15 04:16:27;;;;;;;;;;;;;;;14.92;65.00;99975.84;4267666;33;33825;-93
2021/06/15 04:19:01;;;;;;;;;;;;;;;15.10;64.30;99971.66;4280147;33;32925;-89
2021/06/15 04:21:34;;;;;;;;;;;;;;;14.94;64.82;99968.31;4244594;33;34229;-89
2021/06/15 04:24:08;;;;;;;;;;;;;;;15.39;63.33;99969.50;4256299;33;32958;-89
2021/06/15 04:26:40;;;;;;;;;;;;;;;15.51;63.42;99973.25;4266618;33;34942;-93
2021/06/15 04:29:14;;;;;;;;;;;;;;;15.83;62.70;99971.47;4279153;33;34771;-93
2021/06/15 04:31:48;;;;;;;;;;;;;;;16.09;60.94;99975.09;4256017;33;34563;-92
2021/06/15 04:34:21;;;;;;;;;;;;;;;15.84;61.08;99966.88;4264696;33;33316;-89
2021/06/15 04:36:55;;;;;;;;;;;;;;;16.36;59.53;99969.50;4252819;33;34902;-89
2021/06/15 04:39:29;;;;;;;;;;;;;;;16.50;59.35;99971.09;4265577;33;34266;-89
2021/06/15 04:42:05;;;;;;;;;;;;;;;16.76;59.28;99971.94;4240367;33;34071;-92
2021/06/15 04:44:40;;;;;;;;;;;;;;;16.59;58.84;99968.94;4268623;33;33697;-88
2021/06/15 04:47:14;;;;;;;;;;;;;;;16.72;58.69;99979.75;4280837;33;34657;-89
2021/06/15 04:49:50;;;;;;;;;;;;;;;16.75;58.88;99979.31;4281936;33;33998;-89
2021/06/15 04:52:26;;;;;;;;;;;;;;;16.91;59.12;99977.09;4295062;33;34899;-93
2021/06/15 04:54:59;;;;;;;;;;;;;;;17.14;59.22;99992.00;4295200;33;33876;-92
2021/06/15 04:57:38;;;;;;;;;;;;;;;17.49;58.28;99991.47;4296180;33;33618;-93
2021/06/15 05:00:12;;;;;;;;;;;;;;;17.59;58.13;99986.28;4295144;33;33792;-88
2021/06/15 05:02:45;;;;;;;;;;;;;;;17.85;57.38;99982.41;4262104;33;33968;-93
2021/06/15 05:05:18;;;;;;;;;;;;;;;18.00;57.34;99984.78;4280856;33;32790;-93
2021/06/15 05:07:54;;;;;;;;;;;;;;;18.11;57.02;99986.75;4281127;33;33802;-92
2021/06/15 05:10:28;;;;;;;;;;;;;;;17.98;57.21;99986.91;4286447;33;34042;-89
2021/06/15 05:13:00;;;;;;;;;;;;;;;17.95;57.47;99987.38;4295674;33;34366;-89
2021/06/15 05:15:33;;;;;;;;;;;;;;;18.33;56.60;99991.69;4273426;33;33382;-89
2021/06/15 05:18:05;;;;;;;;;;;;;;;18.64;55.99;99984.28;4295499;33;33965;-89
2021/06/15 05:20:39;;;;;;;;;;;;;;;18.76;56.26;99987.88;4280782;33;34040;-92
2021/06/15 05:23:12;;;;;;;;;;;;;;;18.79;55.24;99987.41;4281203;33;34655;-91
2021/06/15 05:25:46;;;;;;;;;;;;;;;18.87;54.54;99987.06;4283789;33;32960;-88
2021/06/15 05:28:18;;;;;;;;;;;;;;;18.99;54.72;99997.22;4280877;33;34255;-92
2021/06/15 05:30:51;;;;;;;;;;;;;;;19.02;54.95;99996.75;4274376;33;34055;-92
2021/06/15 05:33:24;;;;;;;;;;;;;;;19.26;54.35;99999.50;4285872;33;34603;-90
2021/06/15 05:35:57;;;;;;;;;;;;;;;19.53;54.24;100002.56;4285734;33;33260;-92
2021/06/15 05:38:30;;;;;;;;;;;;;;;19.72;54.44;100004.09;4286623;33;35185;-88
2021/06/15 05:41:02;;;;;;;;;;;;;;;19.70;54.52;100009.00;4285800;33;33722;-92
2021/06/15 05:43:35;;;;;;;;;;;;;;;19.80;54.80;100005.66;4285865;33;34076;-93
2021/06/15 05:46:09;;;;;;;;;;;;;;;19.84;54.94;100012.31;4284249;33;33979;-88
2021/06/15 05:48:42;;;;;;;;;;;;;;;19.94;54.89;100017.19;4275817;33;33996;-92
2021/06/15 05:51:15;;;;;;;;;;;;;;;20.05;52.92;100013.56;4274309;33;34814;-88
2021/06/15 05:53:48;;;;;;;;;;;;;;;20.36;52.28;100013.31;4286098;33;34619;-93
2021/06/15 05:56:21;;;;;;;;;;;;;;;20.38;52.98;100013.94;4285180;33;33120;-91
2021/06/15 05:58:53;;;;;;;;;;;;;;;20.46;52.47;100008.03;4286189;33;35424;-90
2021/06/15 06:01:26;;;;;;;;;;;;;;;20.11;52.11;100014.50;4285870;33;34736;-91
2021/06/15 06:04:05;;;;;;;;;;;;;;;20.58;50.53;100016.22;4274040;33;33908;-91
2021/06/15 06:09:30;;;;;;;;;;;;;;;20.87;48.56;100010.69;4293498;33;34602;-91
2021/06/15 06:12:03;;;;;;;;;;;;;;;20.77;49.00;100016.84;4297244;33;33776;-91
2021/06/15 06:14:36;;;;;;;;;;;;;;;21.14;48.45;100019.13;4295480;33;34320;-91
2021/06/15 06:17:08;;;;;;;;;;;;;;;21.22;48.45;100018.69;4295740;33;33010;-90
2021/06/15 06:19:41;;;;;;;;;;;;;;;21.21;45.72;100006.00;4281066;33;34484;-90
2021/06/15 06:22:14;;;;;;;;;;;;;;;21.33;44.97;100014.16;4295155;33;34800;-90
2021/06/15 06:24:46;;;;;;;;;;;;;;;21.41;44.76;100016.50;4293796;33;34660;-90
2021/06/15 06:27:19;;;;;;;;;;;;;;;21.08;45.31;100018.19;4282517;33;32957;-92
2021/06/15 06:29:52;;;;;;;;;;;;;;;21.41;46.12;100021.19;4282051;33;34124;-90
2021/06/15 06:32:25;;;;;;;;;;;;;;;21.57;46.12;100020.34;4261517;33;34033;-90
2021/06/15 06:34:58;;;;;;;;;;;;;;;21.98;45.18;100020.88;4282280;33;34384;-90
2021/06/15 06:37:31;;;;;;;;;;;;;;;21.71;44.08;100015.28;4282945;33;36384;-90
2021/06/15 06:40:05;;;;;;;;;;;;;;;21.81;43.53;100009.94;4282317;33;34781;-90
2021/06/15 06:42:38;;;;;;;;;;;;;;;21.83;44.46;100007.75;4282283;33;33810;-90
2021/06/15 06:45:11;;;;;;;;;;;;;;;22.06;44.07;100014.06;4281796;33;34004;-90
2021/06/15 06:47:44;;;;;;;;;;;;;;;22.00;42.96;100006.84;4282222;33;33122;-90
2021/06/15 06:50:17;;;;;;;;;;;;;;;22.04;43.37;100003.31;4260815;33;33610;-90
2021/06/15 06:52:50;;;;;;;;;;;;;;;22.44;42.99;100006.81;4281503;33;33965;-90
2021/06/15 06:55:22;;;;;;;;;;;;;;;22.45;41.37;100000.22;4282466;33;34120;-90
2021/06/15 06:57:55;;;;;;;;;;;;;;;22.65;43.15;100001.50;4272159;33;33483;-94
2021/06/15 07:00:29;;;;;;;;;;;;;;;22.80;43.62;100009.06;4294440;33;34307;-93
2021/06/15 07:03:06;;;;;;;;;;;;;;;22.92;43.29;100007.81;4283919;33;34905;-91
2021/06/15 07:05:38;;;;;;;;;;;;;;;22.84;44.42;100004.69;4296423;33;34136;-91
2021/06/15 07:08:12;;;;;;;;;;;;;;;23.08;42.79;100005.16;4286263;33;31596;-92
2021/06/15 07:10:45;;;;;;;;;;;;;;;23.32;41.16;100002.06;4296664;33;34090;-92
2021/06/15 07:13:18;;;;;;;;;;;;;;;23.52;38.77;99998.59;4296592;33;33873;-93
2021/06/15 07:15:52;;;;;;;;;;;;;;;23.56;40.78;100002.47;4283956;33;33657;-91
2021/06/15 07:18:26;;;;;;;;;;;;;;;23.63;41.96;99995.63;4285730;33;33558;-93
2021/06/15 07:20:59;;;;;;;;;;;;;;;23.42;40.09;99993.84;4295137;33;34105;-89
2021/06/15 07:23:32;;;;;;;;;;;;;;;23.62;38.67;99995.88;4296281;33;33469;-91
2021/06/15 07:26:05;;;;;;;;;;;;;;;23.70;40.46;99995.38;4283191;33;33621;-90
2021/06/15 07:28:37;;;;;;;;;;;;;;;23.94;38.36;99994.97;4299058;33;33053;-89
2021/06/15 07:31:10;;;;;;;;;;;;;;;23.70;43.11;99995.38;4306106;33;34932;-90
2021/06/15 07:33:43;;;;;;;;;;;;;;;24.13;44.14;99996.13;4309692;33;34793;-92
2021/06/15 07:36:16;;;;;;;;;;;;;;;24.48;44.64;99989.03;4273585;33;34597;-90
2021/06/15 07:38:51;;;;;;;;;;;;;;;24.66;40.23;99998.75;4305177;33;33961;-94
2021/06/15 07:41:28;;;;;;;;;;;;;;;24.23;38.36;99988.97;4295073;33;34010;-94
2021/06/15 07:44:01;;;;;;;;;;;;;;;24.45;39.80;99981.28;4283697;33;34417;-94
2021/06/15 07:46:42;;;;;;;;;;;;;;;24.97;39.51;99984.09;4301075;33;33954;-94
2021/06/15 07:49:21;;;;;;;;;;;;;;;24.62;34.18;99986.56;4307985;33;32720;-91
2021/06/15 07:51:59;;;;;;;;;;;;;;;24.38;34.11;99989.00;4327218;33;33789;-94
2021/06/15 07:54:34;;;;;;;;;;;;;;;24.80;34.53;99987.97;4302003;33;33685;-95
2021/06/15 07:58:01;;;;;;;;;;;;;;;25.03;36.28;99983.00;3960016;27;35789;-91
2021/06/15 08:00:34;;;;;;;;;;;;;;;25.15;32.93;99975.25;4303556;33;32184;-95
2021/06/15 08:03:19;;;;;;;;;;;;;;;25.24;32.76;99974.66;4305145;33;33740;-94
2021/06/15 08:05:52;;;;;;;;;;;;;;;25.58;33.92;99971.28;4318447;33;32786;-94
2021/06/15 08:08:34;;;;;;;;;;;;;;;25.16;32.56;99974.12;4295482;33;34194;-93
2021/06/15 08:11:07;;;;;;;;;;;;;;;24.97;34.65;99989.62;4292879;33;36692;-92
2021/06/15 08:13:40;;;;;;;;;;;;;;;24.81;33.83;99984.09;4286394;33;33818;-94
2021/06/15 08:16:13;;;;;;;;;;;;;;;25.55;35.00;99978.22;4274753;33;36227;-94
2021/06/15 08:18:46;;;;;;;;;;;;;;;25.67;31.96;99986.19;4278488;33;34368;-94
2021/06/15 08:21:22;;;;;;;;;;;;;;;25.58;32.27;99983.19;4278936;33;33238;-96
2021/06/15 08:24:12;;;;;;;;;;;;;;;25.95;33.56;99981.13;4251051;33;34051;-91
2021/06/15 08:26:44;;;;;;;;;;;;;;;25.15;32.84;99975.25;4259760;33;35098;-94
2021/06/15 08:29:18;;;;;;;;;;;;;;;25.58;31.16;99976.84;4258998;33;34308;-94
2021/06/15 08:31:52;;;;;;;;;;;;;;;25.86;34.02;99978.09;4241720;33;34096;-91
2021/06/15 08:34:25;;;;;;;;;;;;;;;26.04;32.10;99980.25;4246622;33;33236;-92
2021/06/15 08:36:58;;;;;;;;;;;;;;;25.86;32.95;99975.34;4256582;33;34566;-94
2021/06/15 08:39:31;;;;;;;;;;;;;;;26.42;33.88;99975.06;4259692;33;34144;-93
2021/06/15 08:42:04;;;;;;;;;;;;;;;26.65;31.87;99969.91;4270278;33;33034;-94
2021/06/15 08:44:38;;;;;;;;;;;;;;;26.55;33.72;99964.44;4279416;33;33047;-93
2021/06/15 08:47:16;;;;;;;;;;;;;;;27.05;34.98;99967.94;4271568;33;35007;-93
2021/06/15 08:49:50;;;;;;;;;;;;;;;27.16;32.90;99963.09;4273269;33;34791;-89
2021/06/15 08:52:26;;;;;;;;;;;;;;;27.09;32.08;99965.38;4269216;33;33118;-89
2021/06/15 08:54:59;;;;;;;;;;;;;;;26.99;32.75;99960.75;4258879;33;33709;-94
2021/06/15 08:57:33;;;;;;;;;;;;;;;27.49;31.81;99963.31;4283132;33;33717;-90
2021/06/15 09:00:07;;;;;;;;;;;;;;;27.68;30.97;99959.78;4273619;33;34857;-94
2021/06/15 09:02:44;;;;;;;;;;;;;;;27.26;31.44;99954.66;4271036;33;33502;-90
2021/06/15 09:05:18;;;;;;;;;;;;;;;27.58;31.54;99950.44;4283837;33;34012;-89
2021/06/15 09:07:57;;;;;;;;;;;;;;;27.78;33.49;99952.12;4273373;33;34056;-90
2021/06/15 09:10:31;;;;;;;;;;;;;;;27.73;33.96;99945.84;4269316;33;34224;-90
2021/06/15 09:13:04;;;;;;;;;;;;;;;28.18;31.36;99949.13;4259627;33;34656;-92
2021/06/15 09:15:37;;;;;;;;;;;;;;;28.09;33.87;99948.16;4257658;33;35251;-89
2021/06/15 09:18:24;;;;;;;;;;;;;;;28.62;29.49;99950.69;4271117;33;35398;-90
2021/06/15 09:21:00;;;;;;;;;;;;;;;29.03;28.87;99944.44;4271401;33;33824;-90
2021/06/15 09:23:33;;;;;;;;;;;;;;;28.67;27.50;99947.84;4270382;33;33889;-90
2021/06/15 09:26:06;;;;;;;;;;;;;;;28.94;30.91;99937.94;4270667;33;34020;-89
2021/06/15 09:28:39;;;;;;;;;;;;;;;29.10;29.02;99934.84;4270830;33;34098;-90
2021/06/15 09:31:12;;;;;;;;;;;;;;;28.41;27.62;99943.78;4257116;33;33786;-89
2021/06/15 09:33:46;;;;;;;;;;;;;;;29.15;28.83;99948.69;4262377;33;33147;-92
2021/06/15 09:36:28;;;;;;;;;;;;;;;29.36;30.42;99940.81;4282464;33;34794;-90
2021/06/15 09:39:03;;;;;;;;;;;;;;;29.65;30.86;99943.25;4284024;33;33867;-89
2021/06/15 09:41:43;;;;;;;;;;;;;;;29.60;27.72;99935.03;4272416;33;33359;-89
2021/06/15 09:44:20;;;;;;;;;;;;;;;29.52;26.49;99942.16;4272082;33;32880;-89
2021/06/15 09:46:58;;;;;;;;;;;;;;;29.87;25.95;99936.16;4271367;33;34964;-89
2021/06/15 09:49:31;;;;;;;;;;;;;;;29.32;25.83;99935.00;4268069;33;34686;-92
2021/06/15 09:52:21;;;;;;;;;;;;;;;29.30;29.42;99931.72;4285567;33;33547;-89
2021/06/15 09:55:00;;;;;;;;;;;;;;;29.98;27.80;99939.53;4259101;33;33813;-89
2021/06/15 09:57:37;;;;;;;;;;;;;;;29.90;25.30;99941.91;4283944;33;34775;-90
2021/06/15 10:00:17;;;;;;;;;;;;;;;29.75;27.58;99936.66;4272441;33;34650;-89
2021/06/15 10:02:55;;;;;;;;;;;;;;;30.19;27.56;99940.69;4272278;33;33678;-89
2021/06/15 10:05:35;;;;;;;;;;;;;;;30.24;27.47;99940.59;4270618;33;33822;-89
2021/06/15 10:08:10;;;;;;;;;;;;;;;30.30;26.00;99941.31;4257483;33;34855;-89
2021/06/15 10:10:43;;;;;;;;;;;;;;;30.52;26.68;99937.72;4270769;33;33776;-89
2021/06/15 10:13:16;;;;;;;;;;;;;;;30.68;25.51;99934.56;4272518;33;33992;-92
2021/06/15 10:15:49;;;;;;;;;;;;;;;29.50;25.39;99924.91;4273070;33;34065;-92
2021/06/15 10:18:22;;;;;;;;;;;;;;;29.66;25.27;99931.00;4283946;33;34828;-92
2021/06/15 10:20:54;;;;;;;;;;;;;;;29.64;26.35;99924.91;4264412;33;34560;-93
2021/06/15 10:23:27;;;;;;;;;;;;;;;29.91;31.03;99932.44;4281490;33;34946;-93
2021/06/15 10:26:00;;;;;;;;;;;;;;;30.53;30.40;99921.84;4270964;33;33949;-93
2021/06/15 10:28:33;;;;;;;;;;;;;;;30.81;26.74;99916.94;4259908;33;34281;-92
2021/06/15 10:31:05;;;;;;;;;;;;;;;31.07;26.49;99914.31;4273227;33;34066;-92
2021/06/15 10:33:46;;;;;;;;;;;;;;;30.71;24.48;99915.22;4259001;33;32459;-91
2021/06/15 10:36:22;;;;;;;;;;;;;;;29.87;25.85;99905.53;4260191;33;34430;-91
2021/06/15 10:38:55;;;;;;;;;;;;;;;30.53;25.68;99910.69;4284163;33;34470;-91
2021/06/15 10:41:27;;;;;;;;;;;;;;;29.77;24.71;99909.31;4277402;33;34549;-92
2021/06/15 10:44:01;;;;;;;;;;;;;;;29.90;23.85;99913.25;4280098;33;34937;-93
2021/06/15 10:46:36;;;;;;;;;;;;;;;30.53;25.33;99910.69;4270737;33;32993;-94
2021/06/15 10:49:10;;;;;;;;;;;;;;;31.04;26.63;99905.75;4272435;33;34034;-89
2021/06/15 10:51:49;;;;;;;;;;;;;;;30.99;24.32;99903.94;4282688;33;32753;-90
2021/06/15 10:54:31;;;;;;;;;;;;;;;30.86;23.98;99902.84;4269796;33;34623;-89
2021/06/15 10:57:23;;;;;;;;;;;;;;;30.58;24.84;99899.38;4285788;33;33506;-89
2021/06/15 10:59:55;;;;;;;;;;;;;;;30.16;25.17;99893.16;4275303;33;34851;-88
2021/06/15 11:02:31;;;;;;;;;;;;;;;30.48;25.53;99888.50;4269544;33;34628;-89
2021/06/15 11:05:22;;;;;;;;;;;;;;;30.37;25.63;99890.69;4258828;33;34689;-89
2021/06/15 11:08:14;;;;;;;;;;;;;;;30.86;25.99;99886.09;4270560;33;33851;-92
2021/06/15 11:10:54;;;;;;;;;;;;;;;30.83;28.61;99881.16;4269524;33;35209;-89
2021/06/15 11:13:40;;;;;;;;;;;;;;;31.13;24.99;99873.13;4272551;33;35161;-89
2021/06/15 11:16:22;;;;;;;;;;;;;;;31.27;23.23;99870.22;4295183;33;33686;-89
2021/06/15 11:19:14;;;;;;;;;;;;;;;31.27;25.30;99864.63;4279708;33;33089;-94
2021/06/15 11:21:51;;;;;;;;;;;;;;;31.81;26.08;99862.50;4274489;33;34664;-92
2021/06/15 11:24:27;;;;;;;;;;;;;;;31.86;26.32;99856.72;4260993;33;34480;-91
2021/06/15 11:27:07;;;;;;;;;;;;;;;31.72;22.66;99856.03;4285597;33;34261;-92
2021/06/15 11:29:40;;;;;;;;;;;;;;;31.97;22.41;99862.81;4286239;33;33669;-96
2021/06/15 11:32:28;;;;;;;;;;;;;;;32.20;24.00;99855.13;4260791;33;37390;-95
2021/06/15 11:35:02;;;;;;;;;;;;;;;32.75;23.18;99852.72;4271937;33;33756;-92
2021/06/15 11:37:43;;;;;;;;;;;;;;;31.99;21.93;99854.94;4271897;33;33760;-92
2021/06/15 11:40:35;;;;;;;;;;;;;;;32.69;22.53;99852.06;4272755;33;33080;-92
2021/06/15 11:43:08;;;;;;;;;;;;;;;32.68;25.67;99847.66;4274961;33;35744;-92
2021/06/15 11:45:43;;;;;;;;;;;;;;;32.14;22.87;99852.81;4275601;33;34806;-91
2021/06/15 11:48:16;;;;;;;;;;;;;;;32.20;23.81;99845.91;4284699;33;33721;-91
2021/06/15 11:50:49;;;;;;;;;;;;;;;32.50;22.48;99835.66;4264695;33;34818;-92
2021/06/15 11:53:22;;;;;;;;;;;;;;;32.65;22.06;99834.31;4277443;33;33459;-93
2021/06/15 11:55:56;;;;;;;;;;;;;;;32.96;24.58;99833.22;4283212;33;34429;-93
2021/06/15 11:58:37;;;;;;;;;;;;;;;33.03;21.38;99830.72;4287534;33;33707;-94
2021/06/15 12:01:14;;;;;;;;;;;;;;;32.85;23.32;99829.16;4268657;33;32454;-94
2021/06/15 12:03:48;;;;;;;;;;;;;;;33.50;20.64;99821.41;4258536;33;34264;-96
